sensor_id;sensor_type;location;lat;lon;timestamp;P1;durP1;ratioP1;P2;durP2;ratioP2
4226;SDS011;2127;51.046;7.080;2023-05-10T00:00:46;3.23;;;2.37;;
4226;SDS011;2127;51.046;7.080;2023-05-10T00:03:12;2.37;;;2.27;;
4226;SDS011;2127;51.046;7.080;2023-05-10T00:05:38;2.30;;;2.20;;
4226;SDS011;2127;51.046;7.080;2023-05-10T00:08:05;1.60;;;1.50;;
4226;SDS011;2127;51.046;7.080;2023-05-10T00:10:31;1.47;;;1.37;;
4226;SDS011;2127;51.046;7.080;2023-05-10T00:12:59;2.47;;;2.37;;
4226;SDS011;2127;51.046;7.080;2023-05-10T00:15:25;2.33;;;2.13;;
4226;SDS011;2127;51.046;7.080;2023-05-10T00:17:52;1.60;;;1.50;;
4226;SDS011;2127;51.046;7.080;2023-05-10T00:20:18;2.17;;;2.07;;
4226;SDS011;2127;51.046;7.080;2023-05-10T00:22:47;2.00;;;1.90;;
4226;SDS011;2127;51.046;7.080;2023-05-10T00:25:13;3.40;;;3.10;;
4226;SDS011;2127;51.046;7.080;2023-05-10T00:27:40;1.70;;;1.60;;
4226;SDS011;2127;51.046;7.080;2023-05-10T00:30:08;3.00;;;2.80;;
4226;SDS011;2127;51.046;7.080;2023-05-10T00:32:34;4.57;;;2.40;;
4226;SDS011;2127;51.046;7.080;2023-05-10T00:35:00;1.87;;;1.77;;
4226;SDS011;2127;51.046;7.080;2023-05-10T00:37:27;9.10;;;2.20;;
4226;SDS011;2127;51.046;7.080;2023-05-10T00:39:53;1.80;;;1.70;;
4226;SDS011;2127;51.046;7.080;2023-05-10T00:42:19;3.43;;;3.20;;
4226;SDS011;2127;51.046;7.080;2023-05-10T00:44:46;2.47;;;2.27;;
4226;SDS011;2127;51.046;7.080;2023-05-10T00:47:13;2.80;;;2.60;;
4226;SDS011;2127;51.046;7.080;2023-05-10T00:49:40;3.60;;;2.47;;
4226;SDS011;2127;51.046;7.080;2023-05-10T00:52:06;2.43;;;2.27;;
4226;SDS011;2127;51.046;7.080;2023-05-10T00:54:33;2.73;;;2.30;;
4226;SDS011;2127;51.046;7.080;2023-05-10T00:56:59;4.43;;;2.70;;
4226;SDS011;2127;51.046;7.080;2023-05-10T00:59:26;4.83;;;2.90;;
4226;SDS011;2127;51.046;7.080;2023-05-10T01:01:52;2.40;;;2.20;;
4226;SDS011;2127;51.046;7.080;2023-05-10T01:04:20;4.77;;;2.77;;
4226;SDS011;2127;51.046;7.080;2023-05-10T01:06:50;8.93;;;3.20;;
4226;SDS011;2127;51.046;7.080;2023-05-10T01:09:16;2.90;;;2.60;;
4226;SDS011;2127;51.046;7.080;2023-05-10T01:11:43;4.03;;;2.87;;
4226;SDS011;2127;51.046;7.080;2023-05-10T01:14:09;6.83;;;2.97;;
4226;SDS011;2127;51.046;7.080;2023-05-10T01:16:37;3.97;;;3.30;;
4226;SDS011;2127;51.046;7.080;2023-05-10T01:19:04;2.87;;;2.67;;
4226;SDS011;2127;51.046;7.080;2023-05-10T01:21:33;3.00;;;2.37;;
4226;SDS011;2127;51.046;7.080;2023-05-10T01:29:44;2.23;;;2.03;;
4226;SDS011;2127;51.046;7.080;2023-05-10T01:32:20;4.33;;;3.43;;
4226;SDS011;2127;51.046;7.080;2023-05-10T01:34:48;3.23;;;2.53;;
4226;SDS011;2127;51.046;7.080;2023-05-10T01:37:18;2.40;;;2.20;;
4226;SDS011;2127;51.046;7.080;2023-05-10T01:39:46;3.13;;;2.70;;
4226;SDS011;2127;51.046;7.080;2023-05-10T01:42:14;2.40;;;2.23;;
4226;SDS011;2127;51.046;7.080;2023-05-10T01:44:42;2.33;;;2.23;;
4226;SDS011;2127;51.046;7.080;2023-05-10T01:47:13;3.03;;;2.83;;
4226;SDS011;2127;51.046;7.080;2023-05-10T01:49:42;5.70;;;2.70;;
4226;SDS011;2127;51.046;7.080;2023-05-10T01:52:10;2.43;;;2.33;;
4226;SDS011;2127;51.046;7.080;2023-05-10T01:54:38;3.37;;;3.17;;
4226;SDS011;2127;51.046;7.080;2023-05-10T01:57:06;4.50;;;2.77;;
4226;SDS011;2127;51.046;7.080;2023-05-10T01:59:35;5.30;;;2.40;;
4226;SDS011;2127;51.046;7.080;2023-05-10T02:02:05;3.83;;;2.00;;
4226;SDS011;2127;51.046;7.080;2023-05-10T02:04:32;2.70;;;2.60;;
4226;SDS011;2127;51.046;7.080;2023-05-10T02:07:00;4.07;;;2.73;;
4226;SDS011;2127;51.046;7.080;2023-05-10T02:09:26;2.73;;;2.60;;
4226;SDS011;2127;51.046;7.080;2023-05-10T02:11:53;2.43;;;2.03;;
4226;SDS011;2127;51.046;7.080;2023-05-10T02:14:20;2.30;;;1.47;;
4226;SDS011;2127;51.046;7.080;2023-05-10T02:16:49;6.43;;;2.03;;
4226;SDS011;2127;51.046;7.080;2023-05-10T02:19:16;5.53;;;2.43;;
4226;SDS011;2127;51.046;7.080;2023-05-10T02:21:43;3.23;;;2.27;;
4226;SDS011;2127;51.046;7.080;2023-05-10T02:24:12;1.93;;;1.83;;
4226;SDS011;2127;51.046;7.080;2023-05-10T02:26:39;1.03;;;1.03;;
4226;SDS011;2127;51.046;7.080;2023-05-10T02:29:06;8.77;;;1.70;;
4226;SDS011;2127;51.046;7.080;2023-05-10T02:31:33;1.43;;;1.33;;
4226;SDS011;2127;51.046;7.080;2023-05-10T02:33:59;2.23;;;1.70;;
4226;SDS011;2127;51.046;7.080;2023-05-10T02:36:26;5.87;;;2.50;;
4226;SDS011;2127;51.046;7.080;2023-05-10T02:38:53;1.93;;;1.83;;
4226;SDS011;2127;51.046;7.080;2023-05-10T02:41:21;1.87;;;1.77;;
4226;SDS011;2127;51.046;7.080;2023-05-10T02:43:47;2.80;;;2.23;;
4226;SDS011;2127;51.046;7.080;2023-05-10T02:46:15;2.67;;;2.47;;
4226;SDS011;2127;51.046;7.080;2023-05-10T02:48:41;2.80;;;2.50;;
4226;SDS011;2127;51.046;7.080;2023-05-10T02:51:08;2.50;;;2.30;;
4226;SDS011;2127;51.046;7.080;2023-05-10T02:53:34;2.20;;;2.10;;
4226;SDS011;2127;51.046;7.080;2023-05-10T02:56:07;2.57;;;2.20;;
4226;SDS011;2127;51.046;7.080;2023-05-10T02:58:39;3.73;;;1.90;;
4226;SDS011;2127;51.046;7.080;2023-05-10T03:01:05;2.00;;;1.90;;
4226;SDS011;2127;51.046;7.080;2023-05-10T03:03:32;1.97;;;1.87;;
4226;SDS011;2127;51.046;7.080;2023-05-10T03:05:58;8.80;;;5.17;;
4226;SDS011;2127;51.046;7.080;2023-05-10T03:08:25;3.10;;;2.77;;
4226;SDS011;2127;51.046;7.080;2023-05-10T03:10:55;3.13;;;2.93;;
4226;SDS011;2127;51.046;7.080;2023-05-10T03:13:26;2.30;;;2.10;;
4226;SDS011;2127;51.046;7.080;2023-05-10T03:15:57;4.03;;;2.80;;
4226;SDS011;2127;51.046;7.080;2023-05-10T03:18:29;2.67;;;2.27;;
4226;SDS011;2127;51.046;7.080;2023-05-10T03:20:57;2.00;;;1.80;;
4226;SDS011;2127;51.046;7.080;2023-05-10T03:23:26;2.30;;;2.20;;
4226;SDS011;2127;51.046;7.080;2023-05-10T03:25:53;2.40;;;2.17;;
4226;SDS011;2127;51.046;7.080;2023-05-10T03:28:20;2.00;;;1.90;;
4226;SDS011;2127;51.046;7.080;2023-05-10T03:30:47;3.67;;;3.20;;
4226;SDS011;2127;51.046;7.080;2023-05-10T03:33:14;2.33;;;2.17;;
4226;SDS011;2127;51.046;7.080;2023-05-10T03:35:41;8.93;;;3.50;;
4226;SDS011;2127;51.046;7.080;2023-05-10T03:38:10;4.23;;;3.47;;
4226;SDS011;2127;51.046;7.080;2023-05-10T03:40:36;2.30;;;1.87;;
4226;SDS011;2127;51.046;7.080;2023-05-10T03:43:03;3.20;;;2.60;;
4226;SDS011;2127;51.046;7.080;2023-05-10T03:45:29;4.13;;;3.20;;
4226;SDS011;2127;51.046;7.080;2023-05-10T03:47:56;2.60;;;2.50;;
4226;SDS011;2127;51.046;7.080;2023-05-10T03:50:24;2.73;;;2.53;;
4226;SDS011;2127;51.046;7.080;2023-05-10T03:52:51;3.63;;;2.60;;
4226;SDS011;2127;51.046;7.080;2023-05-10T03:55:18;2.63;;;2.43;;
4226;SDS011;2127;51.046;7.080;2023-05-10T03:57:44;3.10;;;2.80;;
4226;SDS011;2127;51.046;7.080;2023-05-10T04:00:11;11.43;;;2.57;;
4226;SDS011;2127;51.046;7.080;2023-05-10T04:02:37;3.23;;;2.30;;
4226;SDS011;2127;51.046;7.080;2023-05-10T04:05:04;8.73;;;3.07;;
4226;SDS011;2127;51.046;7.080;2023-05-10T04:07:31;3.33;;;2.70;;
4226;SDS011;2127;51.046;7.080;2023-05-10T04:09:58;2.70;;;2.10;;
4226;SDS011;2127;51.046;7.080;2023-05-10T04:12:24;2.80;;;2.60;;
4226;SDS011;2127;51.046;7.080;2023-05-10T04:14:50;3.23;;;2.53;;
4226;SDS011;2127;51.046;7.080;2023-05-10T04:17:16;2.60;;;2.40;;
4226;SDS011;2127;51.046;7.080;2023-05-10T04:19:43;5.40;;;3.20;;
4226;SDS011;2127;51.046;7.080;2023-05-10T04:22:09;4.03;;;2.77;;
4226;SDS011;2127;51.046;7.080;2023-05-10T04:24:37;3.00;;;2.83;;
4226;SDS011;2127;51.046;7.080;2023-05-10T04:27:03;2.40;;;2.30;;
4226;SDS011;2127;51.046;7.080;2023-05-10T04:29:29;4.33;;;2.63;;
4226;SDS011;2127;51.046;7.080;2023-05-10T04:31:56;8.93;;;3.90;;
4226;SDS011;2127;51.046;7.080;2023-05-10T04:34:22;11.00;;;3.07;;
4226;SDS011;2127;51.046;7.080;2023-05-10T04:36:49;13.00;;;2.60;;
4226;SDS011;2127;51.046;7.080;2023-05-10T04:39:15;3.67;;;3.00;;
4226;SDS011;2127;51.046;7.080;2023-05-10T04:41:42;5.20;;;4.33;;
4226;SDS011;2127;51.046;7.080;2023-05-10T04:44:09;7.40;;;4.00;;
4226;SDS011;2127;51.046;7.080;2023-05-10T04:46:35;3.27;;;2.97;;
4226;SDS011;2127;51.046;7.080;2023-05-10T04:49:01;3.30;;;3.07;;
4226;SDS011;2127;51.046;7.080;2023-05-10T04:51:28;3.90;;;3.60;;
4226;SDS011;2127;51.046;7.080;2023-05-10T04:53:54;4.57;;;4.20;;
4226;SDS011;2127;51.046;7.080;2023-05-10T04:56:20;3.43;;;3.23;;
4226;SDS011;2127;51.046;7.080;2023-05-10T04:58:48;4.50;;;3.90;;
4226;SDS011;2127;51.046;7.080;2023-05-10T05:01:14;4.33;;;2.90;;
4226;SDS011;2127;51.046;7.080;2023-05-10T05:03:41;9.77;;;3.80;;
4226;SDS011;2127;51.046;7.080;2023-05-10T05:06:07;3.77;;;3.47;;
4226;SDS011;2127;51.046;7.080;2023-05-10T05:08:33;2.33;;;2.23;;
4226;SDS011;2127;51.046;7.080;2023-05-10T05:11:00;7.00;;;3.53;;
4226;SDS011;2127;51.046;7.080;2023-05-10T05:13:26;7.37;;;4.80;;
4226;SDS011;2127;51.046;7.080;2023-05-10T05:15:54;3.30;;;3.10;;
4226;SDS011;2127;51.046;7.080;2023-05-10T05:18:20;5.20;;;3.50;;
4226;SDS011;2127;51.046;7.080;2023-05-10T05:20:46;11.07;;;3.37;;
4226;SDS011;2127;51.046;7.080;2023-05-10T05:23:12;8.93;;;3.87;;
4226;SDS011;2127;51.046;7.080;2023-05-10T05:25:39;5.13;;;4.73;;
4226;SDS011;2127;51.046;7.080;2023-05-10T05:28:05;4.37;;;3.40;;
4226;SDS011;2127;51.046;7.080;2023-05-10T05:30:31;6.73;;;3.60;;
4226;SDS011;2127;51.046;7.080;2023-05-10T05:32:59;3.57;;;3.30;;
4226;SDS011;2127;51.046;7.080;2023-05-10T05:35:25;9.43;;;2.77;;
4226;SDS011;2127;51.046;7.080;2023-05-10T05:37:52;4.60;;;3.80;;
4226;SDS011;2127;51.046;7.080;2023-05-10T05:40:18;5.10;;;3.50;;
4226;SDS011;2127;51.046;7.080;2023-05-10T05:42:45;4.27;;;3.87;;
4226;SDS011;2127;51.046;7.080;2023-05-10T05:45:11;3.67;;;3.37;;
4226;SDS011;2127;51.046;7.080;2023-05-10T05:47:38;3.57;;;3.37;;
4226;SDS011;2127;51.046;7.080;2023-05-10T05:50:06;2.87;;;2.67;;
4226;SDS011;2127;51.046;7.080;2023-05-10T05:52:33;9.70;;;3.70;;
4226;SDS011;2127;51.046;7.080;2023-05-10T05:54:59;4.80;;;3.27;;
4226;SDS011;2127;51.046;7.080;2023-05-10T05:57:25;7.70;;;3.00;;
4226;SDS011;2127;51.046;7.080;2023-05-10T05:59:52;10.90;;;3.00;;
4226;SDS011;2127;51.046;7.080;2023-05-10T06:02:18;5.77;;;3.93;;
4226;SDS011;2127;51.046;7.080;2023-05-10T06:04:45;3.00;;;2.47;;
4226;SDS011;2127;51.046;7.080;2023-05-10T06:07:12;7.23;;;3.97;;
4226;SDS011;2127;51.046;7.080;2023-05-10T06:09:39;8.67;;;3.60;;
4226;SDS011;2127;51.046;7.080;2023-05-10T06:12:05;4.37;;;4.00;;
4226;SDS011;2127;51.046;7.080;2023-05-10T06:14:31;19.63;;;3.67;;
4226;SDS011;2127;51.046;7.080;2023-05-10T06:16:57;15.97;;;4.50;;
4226;SDS011;2127;51.046;7.080;2023-05-10T06:19:24;8.30;;;3.60;;
4226;SDS011;2127;51.046;7.080;2023-05-10T06:21:54;10.50;;;3.80;;
4226;SDS011;2127;51.046;7.080;2023-05-10T06:24:22;3.20;;;3.00;;
4226;SDS011;2127;51.046;7.080;2023-05-10T06:26:48;8.70;;;4.07;;
4226;SDS011;2127;51.046;7.080;2023-05-10T06:29:15;3.83;;;2.30;;
4226;SDS011;2127;51.046;7.080;2023-05-10T06:31:42;5.00;;;3.23;;
4226;SDS011;2127;51.046;7.080;2023-05-10T06:34:08;5.60;;;3.43;;
4226;SDS011;2127;51.046;7.080;2023-05-10T06:36:36;4.63;;;4.33;;
4226;SDS011;2127;51.046;7.080;2023-05-10T06:39:02;3.50;;;3.30;;
4226;SDS011;2127;51.046;7.080;2023-05-10T06:41:30;3.90;;;3.30;;
4226;SDS011;2127;51.046;7.080;2023-05-10T06:43:56;5.50;;;2.50;;
4226;SDS011;2127;51.046;7.080;2023-05-10T06:46:23;13.67;;;3.43;;
4226;SDS011;2127;51.046;7.080;2023-05-10T06:48:49;6.73;;;3.50;;
4226;SDS011;2127;51.046;7.080;2023-05-10T06:51:15;3.03;;;2.83;;
4226;SDS011;2127;51.046;7.080;2023-05-10T06:53:42;7.10;;;3.47;;
4226;SDS011;2127;51.046;7.080;2023-05-10T06:56:08;2.93;;;2.73;;
4226;SDS011;2127;51.046;7.080;2023-05-10T06:58:36;3.40;;;3.10;;
4226;SDS011;2127;51.046;7.080;2023-05-10T07:01:03;3.37;;;3.10;;
4226;SDS011;2127;51.046;7.080;2023-05-10T07:03:30;4.50;;;3.23;;
4226;SDS011;2127;51.046;7.080;2023-05-10T07:05:59;6.57;;;2.90;;
4226;SDS011;2127;51.046;7.080;2023-05-10T07:08:26;3.30;;;3.10;;
4226;SDS011;2127;51.046;7.080;2023-05-10T07:10:53;3.33;;;3.03;;
4226;SDS011;2127;51.046;7.080;2023-05-10T07:13:19;3.77;;;3.43;;
4226;SDS011;2127;51.046;7.080;2023-05-10T07:15:46;4.37;;;3.07;;
4226;SDS011;2127;51.046;7.080;2023-05-10T07:18:13;3.57;;;3.20;;
4226;SDS011;2127;51.046;7.080;2023-05-10T07:20:39;9.63;;;3.33;;
4226;SDS011;2127;51.046;7.080;2023-05-10T07:23:05;3.50;;;2.73;;
4226;SDS011;2127;51.046;7.080;2023-05-10T07:25:32;5.57;;;3.40;;
4226;SDS011;2127;51.046;7.080;2023-05-10T07:27:58;9.23;;;3.87;;
4226;SDS011;2127;51.046;7.080;2023-05-10T07:30:24;5.70;;;3.60;;
4226;SDS011;2127;51.046;7.080;2023-05-10T07:32:52;4.30;;;3.10;;
4226;SDS011;2127;51.046;7.080;2023-05-10T07:35:18;4.27;;;2.87;;
4226;SDS011;2127;51.046;7.080;2023-05-10T07:37:44;3.53;;;3.23;;
4226;SDS011;2127;51.046;7.080;2023-05-10T07:40:11;8.33;;;4.47;;
4226;SDS011;2127;51.046;7.080;2023-05-10T07:42:37;9.23;;;3.07;;
4226;SDS011;2127;51.046;7.080;2023-05-10T07:45:06;3.73;;;3.50;;
4226;SDS011;2127;51.046;7.080;2023-05-10T07:47:32;6.10;;;2.93;;
4226;SDS011;2127;51.046;7.080;2023-05-10T07:50:00;4.07;;;3.30;;
4226;SDS011;2127;51.046;7.080;2023-05-10T07:52:26;2.83;;;2.40;;
4226;SDS011;2127;51.046;7.080;2023-05-10T07:54:52;5.50;;;3.60;;
4226;SDS011;2127;51.046;7.080;2023-05-10T07:57:19;3.57;;;3.33;;
4226;SDS011;2127;51.046;7.080;2023-05-10T07:59:46;5.07;;;2.70;;
4226;SDS011;2127;51.046;7.080;2023-05-10T08:02:12;3.93;;;3.63;;
4226;SDS011;2127;51.046;7.080;2023-05-10T08:04:38;2.93;;;2.73;;
4226;SDS011;2127;51.046;7.080;2023-05-10T08:07:06;6.97;;;4.03;;
4226;SDS011;2127;51.046;7.080;2023-05-10T08:09:32;3.93;;;3.70;;
4226;SDS011;2127;51.046;7.080;2023-05-10T08:11:58;5.77;;;3.30;;
4226;SDS011;2127;51.046;7.080;2023-05-10T08:14:25;7.03;;;2.90;;
4226;SDS011;2127;51.046;7.080;2023-05-10T08:16:51;3.30;;;2.50;;
4226;SDS011;2127;51.046;7.080;2023-05-10T08:19:17;6.90;;;4.07;;
4226;SDS011;2127;51.046;7.080;2023-05-10T08:21:46;8.17;;;2.67;;
4226;SDS011;2127;51.046;7.080;2023-05-10T08:24:14;4.97;;;4.00;;
4226;SDS011;2127;51.046;7.080;2023-05-10T08:26:40;5.13;;;3.23;;
4226;SDS011;2127;51.046;7.080;2023-05-10T08:29:06;7.90;;;3.70;;
4226;SDS011;2127;51.046;7.080;2023-05-10T08:31:33;4.23;;;3.13;;
4226;SDS011;2127;51.046;7.080;2023-05-10T08:33:59;4.57;;;3.00;;
4226;SDS011;2127;51.046;7.080;2023-05-10T08:36:25;3.77;;;2.80;;
4226;SDS011;2127;51.046;7.080;2023-05-10T08:38:52;11.80;;;4.40;;
4226;SDS011;2127;51.046;7.080;2023-05-10T08:41:20;19.57;;;4.50;;
4226;SDS011;2127;51.046;7.080;2023-05-10T08:43:49;9.63;;;4.30;;
4226;SDS011;2127;51.046;7.080;2023-05-10T08:46:16;2.50;;;2.40;;
4226;SDS011;2127;51.046;7.080;2023-05-10T08:48:43;5.03;;;2.13;;
4226;SDS011;2127;51.046;7.080;2023-05-10T08:51:09;4.03;;;2.57;;
4226;SDS011;2127;51.046;7.080;2023-05-10T08:53:37;4.27;;;3.03;;
4226;SDS011;2127;51.046;7.080;2023-05-10T08:56:04;5.40;;;3.23;;
4226;SDS011;2127;51.046;7.080;2023-05-10T08:58:31;4.50;;;3.30;;
4226;SDS011;2127;51.046;7.080;2023-05-10T09:00:58;6.00;;;3.80;;
4226;SDS011;2127;51.046;7.080;2023-05-10T09:03:25;2.60;;;1.77;;
4226;SDS011;2127;51.046;7.080;2023-05-10T09:05:51;5.77;;;3.90;;
4226;SDS011;2127;51.046;7.080;2023-05-10T09:08:18;2.93;;;2.73;;
4226;SDS011;2127;51.046;7.080;2023-05-10T09:10:44;2.87;;;2.67;;
4226;SDS011;2127;51.046;7.080;2023-05-10T09:13:12;3.67;;;3.47;;
4226;SDS011;2127;51.046;7.080;2023-05-10T09:15:41;3.50;;;3.10;;
4226;SDS011;2127;51.046;7.080;2023-05-10T09:18:07;6.03;;;3.50;;
4226;SDS011;2127;51.046;7.080;2023-05-10T09:20:34;4.00;;;3.70;;
4226;SDS011;2127;51.046;7.080;2023-05-10T09:23:00;13.23;;;4.10;;
4226;SDS011;2127;51.046;7.080;2023-05-10T09:25:26;6.97;;;4.43;;
4226;SDS011;2127;51.046;7.080;2023-05-10T09:27:52;6.73;;;3.03;;
4226;SDS011;2127;51.046;7.080;2023-05-10T09:30:23;12.73;;;3.60;;
4226;SDS011;2127;51.046;7.080;2023-05-10T09:32:51;6.17;;;2.67;;
4226;SDS011;2127;51.046;7.080;2023-05-10T09:35:18;7.97;;;4.43;;
4226;SDS011;2127;51.046;7.080;2023-05-10T09:37:45;4.63;;;2.73;;
4226;SDS011;2127;51.046;7.080;2023-05-10T09:40:13;11.23;;;3.77;;
4226;SDS011;2127;51.046;7.080;2023-05-10T09:42:40;7.20;;;4.03;;
4226;SDS011;2127;51.046;7.080;2023-05-10T09:45:07;9.43;;;4.37;;
4226;SDS011;2127;51.046;7.080;2023-05-10T09:47:33;5.83;;;4.60;;
4226;SDS011;2127;51.046;7.080;2023-05-10T09:50:01;10.57;;;5.20;;
4226;SDS011;2127;51.046;7.080;2023-05-10T09:52:29;13.13;;;5.50;;
4226;SDS011;2127;51.046;7.080;2023-05-10T09:54:56;14.23;;;5.33;;
4226;SDS011;2127;51.046;7.080;2023-05-10T09:57:23;7.73;;;3.63;;
4226;SDS011;2127;51.046;7.080;2023-05-10T09:59:49;5.70;;;3.40;;
4226;SDS011;2127;51.046;7.080;2023-05-10T10:02:16;13.97;;;5.37;;
4226;SDS011;2127;51.046;7.080;2023-05-10T10:04:42;7.80;;;4.33;;
4226;SDS011;2127;51.046;7.080;2023-05-10T10:07:10;5.63;;;4.70;;
4226;SDS011;2127;51.046;7.080;2023-05-10T10:09:36;5.10;;;4.27;;
4226;SDS011;2127;51.046;7.080;2023-05-10T10:12:03;16.70;;;4.57;;
4226;SDS011;2127;51.046;7.080;2023-05-10T10:14:29;14.87;;;4.50;;
4226;SDS011;2127;51.046;7.080;2023-05-10T10:16:56;8.43;;;3.77;;
4226;SDS011;2127;51.046;7.080;2023-05-10T10:19:22;6.97;;;4.80;;
4226;SDS011;2127;51.046;7.080;2023-05-10T10:21:48;5.23;;;4.50;;
4226;SDS011;2127;51.046;7.080;2023-05-10T10:24:16;16.47;;;6.30;;
4226;SDS011;2127;51.046;7.080;2023-05-10T10:26:42;6.43;;;4.53;;
4226;SDS011;2127;51.046;7.080;2023-05-10T10:29:13;6.67;;;4.80;;
4226;SDS011;2127;51.046;7.080;2023-05-10T10:31:45;13.60;;;4.37;;
4226;SDS011;2127;51.046;7.080;2023-05-10T10:34:17;14.33;;;6.13;;
4226;SDS011;2127;51.046;7.080;2023-05-10T10:36:48;4.83;;;4.40;;
4226;SDS011;2127;51.046;7.080;2023-05-10T10:39:14;5.53;;;3.80;;
4226;SDS011;2127;51.046;7.080;2023-05-10T10:41:50;9.50;;;5.10;;
4226;SDS011;2127;51.046;7.080;2023-05-10T10:44:28;6.17;;;3.73;;
4226;SDS011;2127;51.046;7.080;2023-05-10T10:47:03;9.40;;;4.50;;
4226;SDS011;2127;51.046;7.080;2023-05-10T10:49:33;12.13;;;4.33;;
4226;SDS011;2127;51.046;7.080;2023-05-10T10:52:12;5.67;;;4.47;;
4226;SDS011;2127;51.046;7.080;2023-05-10T10:54:39;6.50;;;4.00;;
4226;SDS011;2127;51.046;7.080;2023-05-10T10:57:14;4.80;;;3.60;;
4226;SDS011;2127;51.046;7.080;2023-05-10T10:59:43;9.27;;;4.60;;
4226;SDS011;2127;51.046;7.080;2023-05-10T11:02:10;5.60;;;5.10;;
4226;SDS011;2127;51.046;7.080;2023-05-10T11:04:56;6.20;;;5.27;;
4226;SDS011;2127;51.046;7.080;2023-05-10T11:07:22;9.37;;;4.90;;
4226;SDS011;2127;51.046;7.080;2023-05-10T11:09:49;8.00;;;4.67;;
4226;SDS011;2127;51.046;7.080;2023-05-10T11:12:18;13.63;;;5.90;;
4226;SDS011;2127;51.046;7.080;2023-05-10T11:14:48;13.70;;;6.00;;
4226;SDS011;2127;51.046;7.080;2023-05-10T11:17:21;6.13;;;5.30;;
4226;SDS011;2127;51.046;7.080;2023-05-10T11:20:02;6.90;;;4.33;;
4226;SDS011;2127;51.046;7.080;2023-05-10T11:22:29;7.53;;;4.00;;
4226;SDS011;2127;51.046;7.080;2023-05-10T11:25:14;6.37;;;4.60;;
4226;SDS011;2127;51.046;7.080;2023-05-10T11:27:42;9.73;;;4.90;;
4226;SDS011;2127;51.046;7.080;2023-05-10T11:30:09;9.17;;;5.03;;
4226;SDS011;2127;51.046;7.080;2023-05-10T11:32:36;5.03;;;4.47;;
4226;SDS011;2127;51.046;7.080;2023-05-10T11:35:06;6.70;;;4.63;;
4226;SDS011;2127;51.046;7.080;2023-05-10T11:37:32;6.03;;;4.03;;
4226;SDS011;2127;51.046;7.080;2023-05-10T11:39:59;9.93;;;5.23;;
4226;SDS011;2127;51.046;7.080;2023-05-10T11:42:27;17.80;;;5.50;;
4226;SDS011;2127;51.046;7.080;2023-05-10T11:44:55;9.90;;;4.17;;
4226;SDS011;2127;51.046;7.080;2023-05-10T11:47:22;8.20;;;4.83;;
4226;SDS011;2127;51.046;7.080;2023-05-10T11:49:50;7.53;;;5.33;;
4226;SDS011;2127;51.046;7.080;2023-05-10T11:52:16;13.30;;;4.37;;
4226;SDS011;2127;51.046;7.080;2023-05-10T11:54:44;9.03;;;5.77;;
4226;SDS011;2127;51.046;7.080;2023-05-10T11:57:11;2.80;;;2.40;;
4226;SDS011;2127;51.046;7.080;2023-05-10T11:59:37;4.30;;;3.40;;
4226;SDS011;2127;51.046;7.080;2023-05-10T12:02:05;7.27;;;4.30;;
4226;SDS011;2127;51.046;7.080;2023-05-10T12:04:31;2.80;;;2.40;;
4226;SDS011;2127;51.046;7.080;2023-05-10T12:06:58;3.40;;;3.10;;
4226;SDS011;2127;51.046;7.080;2023-05-10T12:09:24;3.00;;;2.40;;
4226;SDS011;2127;51.046;7.080;2023-05-10T12:11:54;3.70;;;3.20;;
4226;SDS011;2127;51.046;7.080;2023-05-10T12:14:21;5.93;;;3.47;;
4226;SDS011;2127;51.046;7.080;2023-05-10T12:16:47;2.60;;;2.40;;
4226;SDS011;2127;51.046;7.080;2023-05-10T12:19:15;8.50;;;3.33;;
4226;SDS011;2127;51.046;7.080;2023-05-10T12:21:44;3.50;;;3.17;;
4226;SDS011;2127;51.046;7.080;2023-05-10T12:24:10;4.90;;;3.80;;
4226;SDS011;2127;51.046;7.080;2023-05-10T12:26:37;5.07;;;2.97;;
4226;SDS011;2127;51.046;7.080;2023-05-10T12:29:12;8.17;;;3.40;;
4226;SDS011;2127;51.046;7.080;2023-05-10T12:31:50;2.30;;;1.80;;
4226;SDS011;2127;51.046;7.080;2023-05-10T12:34:23;1.70;;;1.60;;
4226;SDS011;2127;51.046;7.080;2023-05-10T12:36:50;1.93;;;1.77;;
4226;SDS011;2127;51.046;7.080;2023-05-10T12:39:16;2.83;;;1.70;;
4226;SDS011;2127;51.046;7.080;2023-05-10T12:41:43;4.67;;;1.83;;
4226;SDS011;2127;51.046;7.080;2023-05-10T12:44:09;1.60;;;1.50;;
4226;SDS011;2127;51.046;7.080;2023-05-10T12:46:35;1.13;;;1.13;;
4226;SDS011;2127;51.046;7.080;2023-05-10T12:49:01;4.00;;;1.13;;
4226;SDS011;2127;51.046;7.080;2023-05-10T12:51:29;3.13;;;1.47;;
4226;SDS011;2127;51.046;7.080;2023-05-10T12:53:55;1.43;;;1.37;;
4226;SDS011;2127;51.046;7.080;2023-05-10T12:56:22;1.73;;;1.70;;
4226;SDS011;2127;51.046;7.080;2023-05-10T12:58:48;1.00;;;1.00;;
4226;SDS011;2127;51.046;7.080;2023-05-10T13:01:14;0.70;;;0.70;;
4226;SDS011;2127;51.046;7.080;2023-05-10T13:03:40;4.97;;;1.03;;
4226;SDS011;2127;51.046;7.080;2023-05-10T13:06:09;0.90;;;0.90;;
4226;SDS011;2127;51.046;7.080;2023-05-10T13:08:36;0.93;;;0.93;;
4226;SDS011;2127;51.046;7.080;2023-05-10T13:11:03;1.17;;;1.17;;
4226;SDS011;2127;51.046;7.080;2023-05-10T13:13:29;0.80;;;0.80;;
4226;SDS011;2127;51.046;7.080;2023-05-10T13:15:55;0.63;;;0.63;;
4226;SDS011;2127;51.046;7.080;2023-05-10T13:18:22;2.10;;;0.80;;
4226;SDS011;2127;51.046;7.080;2023-05-10T13:20:49;1.07;;;1.00;;
4226;SDS011;2127;51.046;7.080;2023-05-10T13:23:15;1.87;;;0.90;;
4226;SDS011;2127;51.046;7.080;2023-05-10T13:25:43;1.00;;;1.00;;
4226;SDS011;2127;51.046;7.080;2023-05-10T13:28:09;0.73;;;0.60;;
4226;SDS011;2127;51.046;7.080;2023-05-10T13:30:35;8.63;;;1.27;;
4226;SDS011;2127;51.046;7.080;2023-05-10T13:33:02;1.40;;;1.30;;
4226;SDS011;2127;51.046;7.080;2023-05-10T13:35:28;1.43;;;0.90;;
4226;SDS011;2127;51.046;7.080;2023-05-10T13:37:54;1.00;;;1.00;;
4226;SDS011;2127;51.046;7.080;2023-05-10T13:40:22;0.97;;;0.97;;
4226;SDS011;2127;51.046;7.080;2023-05-10T13:42:50;3.73;;;1.47;;
4226;SDS011;2127;51.046;7.080;2023-05-10T13:45:16;2.50;;;1.80;;
4226;SDS011;2127;51.046;7.080;2023-05-10T13:47:42;2.80;;;2.10;;
4226;SDS011;2127;51.046;7.080;2023-05-10T13:50:09;1.57;;;1.47;;
4226;SDS011;2127;51.046;7.080;2023-05-10T13:52:35;6.80;;;3.23;;
4226;SDS011;2127;51.046;7.080;2023-05-10T13:55:02;2.60;;;2.07;;
4226;SDS011;2127;51.046;7.080;2023-05-10T13:57:28;2.30;;;2.20;;
4226;SDS011;2127;51.046;7.080;2023-05-10T13:59:56;2.33;;;2.23;;
4226;SDS011;2127;51.046;7.080;2023-05-10T14:02:23;2.77;;;2.57;;
4226;SDS011;2127;51.046;7.080;2023-05-10T14:04:49;2.60;;;2.40;;
4226;SDS011;2127;51.046;7.080;2023-05-10T14:07:15;2.60;;;2.20;;
4226;SDS011;2127;51.046;7.080;2023-05-10T14:09:42;4.40;;;2.73;;
4226;SDS011;2127;51.046;7.080;2023-05-10T14:12:09;2.30;;;2.20;;
4226;SDS011;2127;51.046;7.080;2023-05-10T14:14:35;4.63;;;2.43;;
4226;SDS011;2127;51.046;7.080;2023-05-10T14:17:02;4.40;;;3.33;;
4226;SDS011;2127;51.046;7.080;2023-05-10T14:19:29;3.97;;;3.67;;
4226;SDS011;2127;51.046;7.080;2023-05-10T14:21:57;3.73;;;3.20;;
4226;SDS011;2127;51.046;7.080;2023-05-10T14:24:23;3.57;;;3.27;;
4226;SDS011;2127;51.046;7.080;2023-05-10T14:26:49;2.87;;;2.77;;
4226;SDS011;2127;51.046;7.080;2023-05-10T14:29:18;4.20;;;3.90;;
4226;SDS011;2127;51.046;7.080;2023-05-10T14:31:44;2.80;;;2.70;;
4226;SDS011;2127;51.046;7.080;2023-05-10T14:34:12;4.13;;;2.33;;
4226;SDS011;2127;51.046;7.080;2023-05-10T14:36:39;4.50;;;3.60;;
4226;SDS011;2127;51.046;7.080;2023-05-10T14:39:05;9.63;;;2.47;;
4226;SDS011;2127;51.046;7.080;2023-05-10T14:41:31;3.27;;;3.03;;
4226;SDS011;2127;51.046;7.080;2023-05-10T14:43:58;2.80;;;2.70;;
4226;SDS011;2127;51.046;7.080;2023-05-10T14:46:24;3.13;;;2.93;;
4226;SDS011;2127;51.046;7.080;2023-05-10T14:48:51;3.17;;;2.97;;
4226;SDS011;2127;51.046;7.080;2023-05-10T14:51:19;3.83;;;3.10;;
4226;SDS011;2127;51.046;7.080;2023-05-10T14:53:46;4.13;;;2.27;;
4226;SDS011;2127;51.046;7.080;2023-05-10T14:56:13;2.17;;;1.97;;
4226;SDS011;2127;51.046;7.080;2023-05-10T14:58:39;3.97;;;3.13;;
4226;SDS011;2127;51.046;7.080;2023-05-10T15:01:05;4.97;;;2.80;;
4226;SDS011;2127;51.046;7.080;2023-05-10T15:03:32;2.03;;;1.90;;
4226;SDS011;2127;51.046;7.080;2023-05-10T15:05:58;2.90;;;2.70;;
4226;SDS011;2127;51.046;7.080;2023-05-10T15:08:25;2.50;;;2.30;;
4226;SDS011;2127;51.046;7.080;2023-05-10T15:10:52;4.50;;;2.90;;
4226;SDS011;2127;51.046;7.080;2023-05-10T15:13:20;5.40;;;2.20;;
4226;SDS011;2127;51.046;7.080;2023-05-10T15:15:46;2.93;;;2.73;;
4226;SDS011;2127;51.046;7.080;2023-05-10T15:18:13;2.43;;;2.23;;
4226;SDS011;2127;51.046;7.080;2023-05-10T15:20:39;3.80;;;2.63;;